createdAt,value
2023-04-29T00:02:53.619Z,32.31
2023-04-29T00:07:52.851Z,32.31
2023-04-29T00:12:50.992Z,32.40
2023-04-29T00:17:52.239Z,32.50
2023-04-29T00:22:50.377Z,33.51
2023-04-29T00:27:48.550Z,33.42
2023-04-29T00:32:48.743Z,33.21
2023-04-29T00:37:46.890Z,32.10
2023-04-29T00:42:47.024Z,33.11
2023-04-29T00:47:45.254Z,32.42
2023-04-29T00:52:45.398Z,32.81
2023-04-29T00:57:44.567Z,32.50
2023-04-29T01:02:42.755Z,31.90
2023-04-29T01:07:42.938Z,31.60
2023-04-29T01:12:41.114Z,30.45
2023-04-29T01:17:40.350Z,30.65
2023-04-29T01:22:40.594Z,30.06
2023-04-29T01:27:38.748Z,30.37
2023-04-29T01:32:39.930Z,30.79
2023-04-29T01:37:37.254Z,31.30
2023-04-29T01:42:38.429Z,32.42
2023-04-29T01:47:35.609Z,32.53
2023-04-29T01:52:34.713Z,32.65
2023-04-29T01:57:33.839Z,33.17
2023-04-29T02:02:33.073Z,33.89
2023-04-29T02:07:33.220Z,34.50
2023-04-29T02:12:31.558Z,34.61
2023-04-29T02:17:30.730Z,35.32
2023-04-29T02:22:29.869Z,34.84
2023-04-29T02:27:29.010Z,35.66
2023-04-29T02:32:31.425Z,35.36
2023-04-29T02:37:28.518Z,35.57
2023-04-29T02:42:26.795Z,35.89
2023-04-29T02:47:26.130Z,36.29
2023-04-29T02:52:26.214Z,36.30
2023-04-29T02:57:24.495Z,36.40
2023-04-29T03:02:23.858Z,36.92
2023-04-29T03:07:22.937Z,37.13
2023-04-29T03:12:21.151Z,37.53
2023-04-29T03:17:21.275Z,37.63
2023-04-29T03:22:20.616Z,38.15
2023-04-29T03:27:19.960Z,37.95
2023-04-29T03:32:20.105Z,37.77
2023-04-29T03:37:18.444Z,39.36
2023-04-29T03:42:18.588Z,39.16
2023-04-29T03:47:16.744Z,38.98
2023-04-29T03:52:15.915Z,38.48
2023-04-29T03:57:16.072Z,39.38
2023-04-29T04:02:14.276Z,38.50
2023-04-29T04:07:13.421Z,38.80
2023-04-29T04:12:13.798Z,38.31
2023-04-29T04:17:11.967Z,38.70
2023-04-29T04:22:12.882Z,39.90
2023-04-29T04:27:10.327Z,40.62
2023-04-29T04:32:09.584Z,39.82
2023-04-29T04:37:08.811Z,38.92
2023-04-29T04:42:07.983Z,39.32
2023-04-29T04:47:07.080Z,38.72
2023-04-29T04:52:07.413Z,41.03
2023-04-29T04:57:06.739Z,40.23
2023-04-29T05:02:06.165Z,39.74
2023-04-29T05:07:05.297Z,40.06
2023-04-29T05:12:04.443Z,39.65
2023-04-29T05:17:02.697Z,39.86
2023-04-29T05:22:02.844Z,39.86
2023-04-29T05:27:02.161Z,40.25
2023-04-29T05:32:02.483Z,39.76
2023-04-29T05:36:59.829Z,40.28
2023-04-29T05:41:58.996Z,40.08
2023-04-29T05:46:58.138Z,40.08
2023-04-29T05:51:58.297Z,40.28
2023-04-29T05:56:57.436Z,39.98
2023-04-29T06:01:55.562Z,40.67
2023-04-29T06:06:55.742Z,41.38
2023-04-29T06:11:53.928Z,43.41
2023-04-29T06:16:53.075Z,42.79
2023-04-29T06:21:51.244Z,42.90
2023-04-29T06:26:51.403Z,45.81
2023-04-29T06:31:50.603Z,44.21
2023-04-29T06:36:51.780Z,41.49
2023-04-29T06:41:48.927Z,41.39
2023-04-29T06:46:48.139Z,40.59
2023-04-29T06:51:48.288Z,40.59
2023-04-29T06:56:47.452Z,40.50
2023-04-29T07:01:49.578Z,40.50
2023-04-29T07:06:44.859Z,40.59
2023-04-29T07:11:45.970Z,41.19
2023-04-29T07:16:43.390Z,43.99
2023-04-29T07:21:43.528Z,40.69
2023-04-29T07:26:42.877Z,41.39
2023-04-29T07:31:42.207Z,41.30
2023-04-29T07:36:40.346Z,41.80
2023-04-29T07:41:39.490Z,42.10
2023-04-29T07:46:40.847Z,42.19
2023-04-29T07:51:39.872Z,41.09
2023-04-29T07:56:38.015Z,42.90
2023-04-29T08:01:37.162Z,41.80
2023-04-29T08:06:35.326Z,41.30
2023-04-29T08:11:36.487Z,41.69
2023-04-29T08:16:33.676Z,41.09
2023-04-29T08:21:32.817Z,40.80
2023-04-29T08:26:31.997Z,40.69
2023-04-29T08:31:32.165Z,40.69
2023-04-29T08:36:30.324Z,40.80
2023-04-29T08:41:29.603Z,40.78
2023-04-29T08:46:28.788Z,42.10
2023-04-29T08:51:28.957Z,40.88
2023-04-29T08:56:28.047Z,40.67
2023-04-29T09:01:28.436Z,40.78
2023-04-29T09:06:25.585Z,40.67
2023-04-29T09:11:24.886Z,40.78
2023-04-29T09:16:24.178Z,40.78
2023-04-29T09:21:24.442Z,40.67
2023-04-29T09:26:23.710Z,40.78
2023-04-29T09:31:23.032Z,40.88
2023-04-29T09:36:23.140Z,41.58
2023-04-29T09:41:20.511Z,40.58
2023-04-29T09:46:19.587Z,40.45
2023-04-29T09:51:18.841Z,40.45
2023-04-29T09:56:19.162Z,41.36
2023-04-29T10:01:19.478Z,40.56
2023-04-29T10:06:17.758Z,40.25
2023-04-29T10:11:16.030Z,40.56
2023-04-29T10:16:15.361Z,40.75
2023-04-29T10:21:18.785Z,41.46
2023-04-29T10:26:13.848Z,41.96
2023-04-29T10:31:13.169Z,42.25
2023-04-29T10:36:13.434Z,43.35
2023-04-29T10:41:11.697Z,45.45
2023-04-29T10:46:10.980Z,45.05
2023-04-29T10:51:10.291Z,44.75
2023-04-29T10:56:10.554Z,45.45
2023-04-29T11:01:08.870Z,45.35
2023-04-29T11:06:09.177Z,46.65
2023-04-29T11:11:07.453Z,43.19
2023-04-29T11:16:06.764Z,43.07
2023-04-29T11:21:07.054Z,40.70
2023-04-29T11:26:06.382Z,40.08
2023-04-29T11:31:06.684Z,38.93
2023-04-29T11:36:03.972Z,39.03
2023-04-29T11:41:03.244Z,37.60
2023-04-29T11:46:04.556Z,36.77
2023-04-29T11:51:01.672Z,37.07
2023-04-29T11:56:00.908Z,36.96
2023-04-29T12:01:00.182Z,35.44
2023-04-29T12:05:59.513Z,36.74
2023-04-29T12:10:58.790Z,35.34
2023-04-29T12:15:58.100Z,35.53
2023-04-29T12:20:57.360Z,35.85
2023-04-29T12:25:56.643Z,35.44
2023-04-29T12:30:55.932Z,35.44
2023-04-29T12:35:57.203Z,34.61
2023-04-29T12:40:54.468Z,34.51
2023-04-29T12:45:53.781Z,34.92
2023-04-29T12:50:53.074Z,35.53
2023-04-29T12:55:52.370Z,35.44
2023-04-29T13:00:51.761Z,34.63
2023-04-29T13:05:50.883Z,34.12
2023-04-29T13:10:50.187Z,34.22
2023-04-29T13:15:50.459Z,34.53
2023-04-29T13:20:52.932Z,34.33
2023-04-29T13:25:47.975Z,34.31
2023-04-29T13:30:48.248Z,34.23
2023-04-29T13:35:47.503Z,33.51
2023-04-29T13:40:46.996Z,33.72
2023-04-29T13:45:48.148Z,33.72
2023-04-29T13:51:06.199Z,33.94
2023-04-29T14:05:41.999Z,34.76
2023-04-29T14:10:42.141Z,35.97
2023-04-29T14:15:42.423Z,36.90
2023-04-29T14:20:40.678Z,37.59
2023-04-29T14:25:38.977Z,38.00
2023-04-29T14:30:39.255Z,37.90
2023-04-29T14:35:39.550Z,36.88
2023-04-29T14:40:37.803Z,36.88
2023-04-29T14:45:36.086Z,36.58
2023-04-29T14:50:35.272Z,36.79
2023-04-29T14:55:34.559Z,36.50
2023-04-29T15:00:34.825Z,37.90
2023-04-29T15:05:33.121Z,39.90
2023-04-29T15:10:32.414Z,42.19
2023-04-29T15:15:31.700Z,43.01
2023-04-29T15:20:30.961Z,41.82
2023-04-29T15:25:30.266Z,40.80
2023-04-29T15:30:30.560Z,39.28
2023-04-29T15:35:28.797Z,38.58
2023-04-29T15:40:30.067Z,40.28
2023-04-29T15:45:28.387Z,38.92
2023-04-29T15:50:27.657Z,41.00
2023-04-29T15:55:25.900Z,40.42
2023-04-29T16:00:25.164Z,38.34
2023-04-29T16:05:24.419Z,38.22
2023-04-29T16:10:23.671Z,38.02
2023-04-29T16:15:22.944Z,36.40
2023-04-29T16:20:22.210Z,36.08
2023-04-29T16:25:21.454Z,35.95
2023-04-29T16:30:21.712Z,35.86
2023-04-29T16:35:19.916Z,36.08
2023-04-29T16:40:19.170Z,36.69
2023-04-29T16:45:20.532Z,36.90
2023-04-29T16:50:17.663Z,37.11
2023-04-29T16:55:16.930Z,37.23
2023-04-29T17:00:16.187Z,37.43
2023-04-29T17:05:16.456Z,37.23
2023-04-29T17:10:14.698Z,37.03
2023-04-29T17:15:13.993Z,36.91
2023-04-29T17:20:13.266Z,36.50
2023-04-29T17:25:14.540Z,36.30
2023-04-29T17:30:12.799Z,36.51
2023-04-29T17:35:10.046Z,36.71
2023-04-29T17:40:09.353Z,37.43
2023-04-29T17:45:10.826Z,37.13
2023-04-29T17:50:11.085Z,40.16
2023-04-29T17:55:09.233Z,40.24
2023-04-29T18:00:07.538Z,39.84
2023-04-29T18:05:07.822Z,40.50
2023-04-29T18:10:07.286Z,39.48
2023-04-29T18:15:06.414Z,39.61
2023-04-29T18:20:04.966Z,41.25
2023-04-29T18:25:05.051Z,41.83
2023-04-29T18:30:03.260Z,39.33
2023-04-29T18:35:02.347Z,40.06
2023-04-29T18:40:01.784Z,40.03
2023-04-29T18:45:01.148Z,37.69
2023-04-29T18:50:00.082Z,38.09
2023-04-29T18:55:00.595Z,36.54
2023-04-29T18:59:58.670Z,37.19
2023-04-29T19:04:58.332Z,37.09
2023-04-29T19:09:58.308Z,37.41
2023-04-29T19:14:57.476Z,38.54
2023-04-29T19:19:55.945Z,39.37
2023-04-29T19:24:56.233Z,41.31
2023-04-29T19:29:55.452Z,40.72
2023-04-29T19:34:53.474Z,41.00
2023-04-29T19:39:54.238Z,41.83
2023-04-29T19:44:53.229Z,42.11
2023-04-29T19:49:52.752Z,42.33
2023-04-29T19:54:50.566Z,41.30
2023-04-29T19:59:49.625Z,41.89
2023-04-29T20:04:50.216Z,40.76
2023-04-29T20:09:48.140Z,42.93
2023-04-29T20:14:47.764Z,43.95
2023-04-29T20:19:47.698Z,43.55
2023-04-29T20:24:45.946Z,41.87
2023-04-29T20:29:49.333Z,42.07
2023-04-29T20:34:44.663Z,43.21
2023-04-29T20:39:44.604Z,42.91
2023-04-29T20:44:45.021Z,40.98
2023-04-29T20:49:42.076Z,41.69
2023-04-29T20:54:42.334Z,42.81
2023-04-29T20:59:40.619Z,43.75
2023-04-29T21:04:39.961Z,43.65
2023-04-29T21:09:41.230Z,43.43
2023-04-29T21:14:40.881Z,42.49
2023-04-29T21:19:36.876Z,43.43
2023-04-29T21:24:37.989Z,42.31
2023-04-29T21:29:37.270Z,41.16
2023-04-29T21:34:36.532Z,41.28
2023-04-29T21:39:34.792Z,40.86
2023-04-29T21:44:35.158Z,41.02
2023-04-29T21:49:34.392Z,40.86
2023-04-29T21:54:33.710Z,40.90
2023-04-29T21:59:34.015Z,40.26
2023-04-29T22:04:31.281Z,40.90
2023-04-29T22:09:30.624Z,41.14
2023-04-29T22:14:30.706Z,41.66
2023-04-29T22:19:29.971Z,41.85
2023-04-29T22:24:30.203Z,42.18
2023-04-29T22:29:27.437Z,41.55
2023-04-29T22:34:26.698Z,41.03
2023-04-29T22:39:26.020Z,40.42
2023-04-29T22:44:25.279Z,40.44
2023-04-29T22:49:24.563Z,40.54
2023-04-29T22:54:23.845Z,40.74
2023-04-29T22:59:24.128Z,40.24
2023-04-29T23:04:23.459Z,40.32
2023-04-29T23:09:21.649Z,40.76
2023-04-29T23:14:20.793Z,40.95
2023-04-29T23:19:20.201Z,39.83
2023-04-29T23:24:20.378Z,39.61
2023-04-29T23:29:20.525Z,39.61
2023-04-29T23:34:19.662Z,40.34
2023-04-29T23:39:16.987Z,40.64
2023-04-29T23:44:16.113Z,39.27
2023-04-29T23:49:17.273Z,38.57
2023-04-29T23:54:14.585Z,38.28
2023-04-29T23:59:15.966Z,38.77
